Time;durP1;ratioP1;P1;durP2;ratioP2;P2;SDS_P1;SDS_P2;PMS_P1;PMS_P2;Temp;Humidity;BMP_temperature;BMP_pressure;BME280_temperature;BME280_humidity;BME280_pressure;Samples;Min_cycle;Max_cycle;Signal;HPM_P1;HPM_P2
2022/12/21 00:02:06;;;;;;;;;;;;;;;-143.57;100.00;51426.25;5060694;28;19946;-60
2022/12/21 00:04:33;;;;;;;;;;;;;;;-143.57;100.00;51418.28;5057569;28;19935;-59
2022/12/21 00:06:59;;;;;;;;;;;;;;;-143.57;100.00;51410.34;5057370;28;20605;-60
2022/12/21 00:09:26;;;;;;;;;;;;;;;-143.57;100.00;51386.47;5058000;28;19932;-59
2022/12/21 00:11:52;;;;;;;;;;;;;;;-143.57;100.00;51414.31;5057769;28;20458;-60
2022/12/21 00:14:19;;;;;;;;;;;;;;;-143.57;100.00;51408.34;5059658;28;20017;-60
2022/12/21 00:16:46;;;;;;;;;;;;;;;-143.57;100.00;51442.16;5057897;28;20598;-61
2022/12/21 00:19:16;;;;;;;;;;;;;;;-143.57;100.00;51438.16;5057763;28;19932;-60
2022/12/21 00:21:42;;;;;;;;;;;;;;;-143.57;100.00;51366.59;5057181;28;19933;-60
2022/12/21 00:24:09;;;;;;;;;;;;;;;-143.57;100.00;51442.16;5059975;28;19925;-60
2022/12/21 00:26:36;;;;;;;;;;;;;;;-143.57;100.00;51414.31;5056389;28;19950;-59
2022/12/21 00:29:04;;;;;;;;;;;;;;;-143.57;100.00;51390.47;5058225;28;19982;-60
2022/12/21 00:31:34;;;;;;;;;;;;;;;-143.57;100.00;51388.47;5057451;28;19928;-60
2022/12/21 00:34:02;;;;;;;;;;;;;;;-143.57;100.00;51362.63;5057446;28;19928;-60
2022/12/21 00:36:31;;;;;;;;;;;;;;;-143.57;100.00;51376.53;5056485;28;20554;-60
2022/12/21 00:38:58;;;;;;;;;;;;;;;-143.57;100.00;51426.25;5060676;28;20441;-60
2022/12/21 00:41:26;;;;;;;;;;;;;;;-143.57;100.00;51406.34;5059266;28;19928;-60
2022/12/21 00:43:54;;;;;;;;;;;;;;;-143.57;100.00;51414.31;5057340;28;20563;-60
2022/12/21 00:46:23;;;;;;;;;;;;;;;-143.57;100.00;51424.25;5060185;28;20692;-60
2022/12/21 00:48:50;;;;;;;;;;;;;;;-143.57;100.00;51430.22;5055915;28;19941;-60
2022/12/21 00:51:18;;;;;;;;;;;;;;;-143.57;100.00;51434.19;5059018;28;20403;-60
2022/12/21 00:53:45;;;;;;;;;;;;;;;-143.57;100.00;51430.22;5055327;28;20576;-60
2022/12/21 00:56:13;;;;;;;;;;;;;;;-143.57;100.00;51412.31;5057131;28;19971;-60
2022/12/21 00:58:39;;;;;;;;;;;;;;;-143.57;100.00;51394.44;5055134;28;19936;-60
2022/12/21 01:01:12;;;;;;;;;;;;;;;-143.57;100.00;51406.34;5059821;28;19955;-60
2022/12/21 01:03:39;;;;;;;;;;;;;;;-143.57;100.00;51390.47;5056817;28;19936;-60
2022/12/21 01:06:16;;;;;;;;;;;;;;;-143.57;100.00;51398.41;5054936;28;19935;-61
2022/12/21 01:08:42;;;;;;;;;;;;;;;-143.57;100.00;51398.41;5050693;28;20695;-61
2022/12/21 01:11:10;;;;;;;;;;;;;;;-143.57;100.00;51394.44;5058744;28;19924;-60
2022/12/21 01:13:38;;;;;;;;;;;;;;;-143.57;100.00;51418.28;5057512;28;19920;-60
2022/12/21 01:16:16;;;;;;;;;;;;;;;-143.57;100.00;51442.16;5055436;28;20438;-62
2022/12/21 01:18:43;;;;;;;;;;;;;;;-143.57;100.00;51426.25;5059136;28;19964;-60
2022/12/21 01:21:18;;;;;;;;;;;;;;;-143.57;100.00;51370.56;5056202;28;19933;-60
2022/12/21 01:23:44;;;;;;;;;;;;;;;-143.57;100.00;51446.13;5056217;28;20602;-61
2022/12/21 01:26:12;;;;;;;;;;;;;;;-143.57;100.00;51404.38;5058903;28;19936;-60
2022/12/21 01:28:40;;;;;;;;;;;;;;;-143.57;100.00;51468.00;5054218;28;19928;-60
2022/12/21 01:31:07;;;;;;;;;;;;;;;-143.57;100.00;51438.16;5055693;28;19928;-59
2022/12/21 01:33:34;;;;;;;;;;;;;;;-143.57;100.00;51454.06;5057625;28;19928;-60
2022/12/21 01:36:07;;;;;;;;;;;;;;;-143.57;100.00;51382.50;5051204;28;20533;-60
2022/12/21 01:38:34;;;;;;;;;;;;;;;-143.57;100.00;51422.25;5056883;28;19989;-60
2022/12/21 01:41:01;;;;;;;;;;;;;;;-143.57;100.00;51422.25;5054992;28;19930;-60
2022/12/21 01:43:46;;;;;;;;;;;;;;;-143.57;100.00;51378.53;5059954;28;19989;-60
2022/12/21 01:46:17;;;;;;;;;;;;;;;-143.57;100.00;51424.25;5056309;28;19935;-60
2022/12/21 01:48:51;;;;;;;;;;;;;;;-143.57;100.00;51402.38;5058236;28;19931;-60
2022/12/21 01:51:17;;;;;;;;;;;;;;;-143.57;100.00;51430.22;5057823;28;19935;-60
2022/12/21 01:53:48;;;;;;;;;;;;;;;-143.57;100.00;51422.25;5056144;28;20027;-61
2022/12/21 01:56:17;;;;;;;;;;;;;;;-143.57;100.00;51394.44;5058617;28;19929;-60
2022/12/21 01:58:43;;;;;;;;;;;;;;;-143.57;100.00;51402.38;5056250;28;19920;-60
2022/12/21 02:01:10;;;;;;;;;;;;;;;-143.57;100.00;51416.28;5060449;28;20534;-60
2022/12/21 02:03:43;;;;;;;;;;;;;;;-143.57;100.00;51394.44;5084573;28;19928;-60
2022/12/21 02:06:30;;;;;;;;;;;;;;;-143.57;100.00;51370.56;5062760;28;19980;-60
2022/12/21 02:08:58;;;;;;;;;;;;;;;-143.57;100.00;51446.13;5057684;28;19963;-60
2022/12/21 02:11:24;;;;;;;;;;;;;;;-143.57;100.00;51414.31;5087580;28;19985;-61
2022/12/21 02:13:51;;;;;;;;;;;;;;;-143.57;100.00;51396.41;5059776;28;19974;-60
2022/12/21 02:16:27;;;;;;;;;;;;;;;-143.57;100.00;51358.66;5061409;28;19932;-60
2022/12/21 02:19:01;;;;;;;;;;;;;;;-143.57;100.00;51444.13;5058813;28;19928;-60
2022/12/21 02:21:44;;;;;;;;;;;;;;;-143.57;100.00;51390.47;5061590;28;20352;-60
2022/12/21 02:24:24;;;;;;;;;;;;;;;-143.57;100.00;51414.31;5060634;28;19946;-59
2022/12/21 02:27:06;;;;;;;;;;;;;;;-143.57;100.00;51388.47;5060803;28;19936;-59
2022/12/21 02:29:42;;;;;;;;;;;;;;;-143.57;100.00;51414.31;5059303;28;19925;-60
2022/12/21 02:32:15;;;;;;;;;;;;;;;-143.57;100.00;51378.53;5061265;28;19947;-60
2022/12/21 02:34:45;;;;;;;;;;;;;;;-143.57;100.00;51418.28;5058706;28;19979;-60
2022/12/21 02:37:16;;;;;;;;;;;;;;;-143.57;100.00;51394.44;5060377;28;19924;-61
2022/12/21 02:39:45;;;;;;;;;;;;;;;-143.57;100.00;51388.47;5059599;28;19928;-60
2022/12/21 02:45:43;;;;;;;;;;;;;;;-143.57;100.00;51422.25;5056974;28;19933;-60
2022/12/21 02:48:17;;;;;;;;;;;;;;;-143.57;100.00;51390.47;5060219;28;19983;-60
2022/12/21 02:50:48;;;;;;;;;;;;;;;-143.57;100.00;51394.44;5057006;28;19932;-60
2022/12/21 02:53:18;;;;;;;;;;;;;;;-143.57;100.00;51418.28;5058801;28;19932;-60
2022/12/21 02:55:45;;;;;;;;;;;;;;;-143.57;100.00;51402.38;5059192;28;20420;-60
2022/12/21 02:58:19;;;;;;;;;;;;;;;-143.57;100.00;51438.16;5060949;28;19928;-60
2022/12/21 03:00:52;;;;;;;;;;;;;;;-143.57;100.00;51386.47;5082706;28;19928;-60
2022/12/21 03:03:47;;;;;;;;;;;;;;;-143.57;100.00;51414.31;5059310;28;19924;-60
2022/12/21 03:06:24;;;;;;;;;;;;;;;-143.57;100.00;51392.44;5057737;28;19924;-59
2022/12/21 03:09:01;;;;;;;;;;;;;;;-143.57;100.00;51422.25;5085547;28;19934;-61
2022/12/21 03:11:52;;;;;;;;;;;;;;;-143.57;100.00;51412.31;5054134;28;19978;-60
2022/12/21 03:14:38;;;;;;;;;;;;;;;-143.57;100.00;51380.50;5052420;28;19936;-60
2022/12/21 03:17:21;;;;;;;;;;;;;;;-143.57;100.00;51410.34;5085671;28;20435;-60
2022/12/21 03:20:00;;;;;;;;;;;;;;;-143.57;100.00;51388.47;5058985;28;20800;-60
2022/12/21 03:22:30;;;;;;;;;;;;;;;-143.57;100.00;51406.34;5084029;28;19955;-61
2022/12/21 03:25:19;;;;;;;;;;;;;;;-143.57;100.00;51408.34;5060163;28;20453;-61
2022/12/21 03:27:48;;;;;;;;;;;;;;;-143.57;100.00;51406.34;5052198;28;19928;-60
2022/12/21 03:30:19;;;;;;;;;;;;;;;-143.57;100.00;51410.34;5059667;28;19928;-58
2022/12/21 03:32:48;;;;;;;;;;;;;;;-143.57;100.00;51422.25;5058652;28;20039;-60
2022/12/21 03:35:20;;;;;;;;;;;;;;;-143.57;100.00;51414.31;5059905;28;19928;-61
2022/12/21 03:37:49;;;;;;;;;;;;;;;-143.57;100.00;51394.44;5058590;28;19935;-60
2022/12/21 03:40:19;;;;;;;;;;;;;;;-143.57;100.00;51396.41;5058995;28;20383;-60
2022/12/21 03:42:52;;;;;;;;;;;;;;;-143.57;100.00;51406.34;5060154;28;20059;-60
2022/12/21 03:45:22;;;;;;;;;;;;;;;-143.57;100.00;51426.25;5057533;28;20351;-60
2022/12/21 03:47:52;;;;;;;;;;;;;;;-143.57;100.00;51354.66;5085939;28;20652;-60
2022/12/21 03:50:22;;;;;;;;;;;;;;;-143.57;100.00;51410.34;5056494;28;20011;-60
2022/12/21 03:52:52;;;;;;;;;;;;;;;-143.57;100.00;51412.31;5058048;28;20610;-60
2022/12/21 03:55:30;;;;;;;;;;;;;;;-143.57;100.00;51390.47;5058961;28;20359;-60
2022/12/21 03:57:57;;;;;;;;;;;;;;;-143.57;100.00;51402.38;5060760;28;19924;-60
2022/12/21 04:00:26;;;;;;;;;;;;;;;-143.57;100.00;51358.66;5057022;28;19967;-60
2022/12/21 04:02:56;;;;;;;;;;;;;;;-143.57;100.00;51418.28;5059232;28;19924;-60
2022/12/21 04:05:30;;;;;;;;;;;;;;;-143.57;100.00;51410.34;5058158;28;20561;-60
2022/12/21 04:07:57;;;;;;;;;;;;;;;-143.57;100.00;51406.34;5058798;28;19928;-60
2022/12/21 04:10:24;;;;;;;;;;;;;;;-143.57;100.00;51402.38;5055082;28;20784;-61
2022/12/21 04:12:51;;;;;;;;;;;;;;;-143.57;100.00;51394.44;5060083;28;19932;-60
2022/12/21 04:15:19;;;;;;;;;;;;;;;-143.57;100.00;51414.31;5058817;28;19928;-61
2022/12/21 04:17:48;;;;;;;;;;;;;;;-143.57;100.00;51402.38;5058836;28;19935;-61
2022/12/21 04:20:16;;;;;;;;;;;;;;;-143.57;100.00;51406.34;5058727;28;19933;-59
2022/12/21 04:28:29;;;;;;;;;;;;;;;-143.57;100.00;51408.34;5057685;28;20598;-59
2022/12/21 04:31:16;;;;;;;;;;;;;;;-143.57;100.00;51378.53;5057651;28;20547;-60
2022/12/21 04:33:42;;;;;;;;;;;;;;;-143.57;100.00;51422.25;5057977;28;19935;-59
2022/12/21 04:38:54;;;;;;;;;;;;;;;-143.57;100.00;51382.50;5056149;28;20015;-60
2022/12/21 04:41:21;;;;;;;;;;;;;;;-143.57;100.00;51402.38;5058630;28;19928;-60
2022/12/21 04:43:48;;;;;;;;;;;;;;;-143.57;100.00;51442.16;5056484;28;19963;-59
2022/12/21 04:46:15;;;;;;;;;;;;;;;-143.57;100.00;51398.41;5058877;28;20696;-59
2022/12/21 04:48:43;;;;;;;;;;;;;;;-143.57;100.00;51426.25;5082654;28;19982;-60
2022/12/21 04:51:14;;;;;;;;;;;;;;;-143.57;100.00;51378.53;5060675;28;20388;-60
2022/12/21 04:53:41;;;;;;;;;;;;;;;-143.57;100.00;51406.34;5056532;28;19932;-60
2022/12/21 04:56:08;;;;;;;;;;;;;;;-143.57;100.00;51438.16;5060161;28;20696;-60
2022/12/21 04:58:35;;;;;;;;;;;;;;;-143.57;100.00;51410.34;5053652;28;20028;-60
2022/12/21 05:01:07;;;;;;;;;;;;;;;-143.57;100.00;51410.34;5058112;28;20019;-59
2022/12/21 05:03:33;;;;;;;;;;;;;;;-143.57;100.00;51376.53;5057982;28;19985;-59
2022/12/21 05:06:00;;;;;;;;;;;;;;;-143.57;100.00;51414.31;5058882;28;19928;-60
2022/12/21 05:08:28;;;;;;;;;;;;;;;-143.57;100.00;51402.38;5056111;28;19929;-59
2022/12/21 05:10:54;;;;;;;;;;;;;;;-143.57;100.00;51406.34;5052735;28;19928;-59
2022/12/21 05:13:21;;;;;;;;;;;;;;;-143.57;100.00;51408.34;5058691;28;19971;-59
2022/12/21 05:15:48;;;;;;;;;;;;;;;-143.57;100.00;51410.34;5056805;28;19935;-59
2022/12/21 05:27:48;;;;;;;;;;;;;;;-143.57;100.00;51406.34;5051976;28;20323;-61
2022/12/21 05:30:15;;;;;;;;;;;;;;;-143.57;100.00;51432.19;5052263;28;20466;-60
2022/12/21 05:32:42;;;;;;;;;;;;;;;-143.57;100.00;51442.16;5056012;28;19964;-60
2022/12/21 05:35:09;;;;;;;;;;;;;;;-143.57;100.00;51410.34;5061734;28;20153;-61
2022/12/21 05:37:42;;;;;;;;;;;;;;;-143.57;100.00;51394.44;5061452;28;20696;-62
2022/12/21 05:40:08;;;;;;;;;;;;;;;-143.57;100.00;51406.34;5061909;28;19933;-61
2022/12/21 05:42:35;;;;;;;;;;;;;;;-143.57;100.00;51406.34;5060164;28;20034;-62
2022/12/21 05:45:02;;;;;;;;;;;;;;;-143.57;100.00;51430.22;5064569;28;19939;-60
2022/12/21 05:47:28;;;;;;;;;;;;;;;-143.57;100.00;51402.38;5055925;28;20027;-61
2022/12/21 05:49:55;;;;;;;;;;;;;;;-143.57;100.00;51426.25;5063810;28;19932;-60
2022/12/21 05:52:22;;;;;;;;;;;;;;;-143.57;100.00;51418.28;5060217;28;19932;-60
2022/12/21 05:54:49;;;;;;;;;;;;;;;-143.57;100.00;51430.22;5062247;28;20385;-60
2022/12/21 05:57:15;;;;;;;;;;;;;;;-143.57;100.00;51418.28;5060318;28;19925;-61
2022/12/21 05:59:42;;;;;;;;;;;;;;;-143.57;100.00;51400.41;5061384;28;19928;-61
2022/12/21 06:02:09;;;;;;;;;;;;;;;-143.57;100.00;51386.47;5060584;28;20595;-60
2022/12/21 06:04:35;;;;;;;;;;;;;;;-143.57;100.00;51386.47;5060945;28;19928;-61
2022/12/21 06:07:02;;;;;;;;;;;;;;;-143.57;100.00;51398.41;5061040;28;19924;-60
2022/12/21 06:09:29;;;;;;;;;;;;;;;-143.57;100.00;51414.31;5055762;28;19936;-61
2022/12/21 06:11:56;;;;;;;;;;;;;;;-143.57;100.00;51386.47;5060275;28;19932;-61
2022/12/21 06:14:22;;;;;;;;;;;;;;;-143.57;100.00;51398.41;5058443;28;19932;-60
2022/12/21 06:16:49;;;;;;;;;;;;;;;-143.57;100.00;51390.47;5059996;28;19985;-60
2022/12/21 06:19:16;;;;;;;;;;;;;;;-143.57;100.00;51440.16;5056887;28;19928;-61
2022/12/21 06:21:42;;;;;;;;;;;;;;;-143.57;100.00;51434.19;5060092;28;20611;-60
2022/12/21 06:24:10;;;;;;;;;;;;;;;-143.57;100.00;51426.25;5058808;28;20457;-61
2022/12/21 06:26:36;;;;;;;;;;;;;;;-143.57;100.00;51438.16;5062411;28;19935;-60
2022/12/21 06:29:12;;;;;;;;;;;;;;;-143.57;100.00;51398.41;5061040;28;20047;-60
2022/12/21 06:31:38;;;;;;;;;;;;;;;-143.57;100.00;51416.28;5062392;28;19932;-59
2022/12/21 06:34:05;;;;;;;;;;;;;;;-143.57;100.00;51370.56;5059005;28;20013;-61
2022/12/21 06:36:32;;;;;;;;;;;;;;;-143.57;100.00;51402.38;5060212;28;19934;-60
2022/12/21 06:38:59;;;;;;;;;;;;;;;-143.57;100.00;51410.34;5060779;28;19928;-60
2022/12/21 06:41:25;;;;;;;;;;;;;;;-143.57;100.00;51438.16;5060295;28;20564;-61
2022/12/21 06:43:52;;;;;;;;;;;;;;;-143.57;100.00;51422.25;5060998;28;19951;-61
2022/12/21 06:46:19;;;;;;;;;;;;;;;-143.57;100.00;51390.47;5058508;28;20017;-60
2022/12/21 06:48:46;;;;;;;;;;;;;;;-143.57;100.00;51402.38;5061975;28;19951;-60
2022/12/21 06:51:13;;;;;;;;;;;;;;;-143.57;100.00;51370.56;5059246;28;19928;-59
2022/12/21 06:53:40;;;;;;;;;;;;;;;-143.57;100.00;51406.34;5061604;28;20017;-59
2022/12/21 06:56:08;;;;;;;;;;;;;;;-143.57;100.00;51362.63;5058449;28;19924;-59
2022/12/21 06:58:44;;;;;;;;;;;;;;;-143.57;100.00;51418.28;5060077;28;19932;-60
2022/12/21 07:01:21;;;;;;;;;;;;;;;-143.57;100.00;51408.34;5058861;28;19968;-61
2022/12/21 07:03:48;;;;;;;;;;;;;;;-143.57;100.00;51402.38;5059573;28;19933;-61
2022/12/21 07:06:16;;;;;;;;;;;;;;;-143.57;100.00;51390.47;5059192;28;19952;-61
2022/12/21 07:08:42;;;;;;;;;;;;;;;-143.57;100.00;51414.31;5059175;28;20027;-61
2022/12/21 07:11:10;;;;;;;;;;;;;;;-143.57;100.00;51440.16;5059078;28;19925;-60
2022/12/21 07:13:38;;;;;;;;;;;;;;;-143.57;100.00;51414.31;5059238;28;20652;-60
2022/12/21 07:16:05;;;;;;;;;;;;;;;-143.57;100.00;51420.28;5057537;28;19932;-61
2022/12/21 07:18:32;;;;;;;;;;;;;;;-143.57;100.00;51406.34;5056948;28;19978;-60
2022/12/21 07:21:02;;;;;;;;;;;;;;;-143.57;100.00;51446.13;5059334;28;19940;-62
2022/12/21 07:23:33;;;;;;;;;;;;;;;-143.57;100.00;51426.25;5057098;28;19935;-60
2022/12/21 07:26:00;;;;;;;;;;;;;;;-143.57;100.00;51398.41;5058828;28;19932;-60
2022/12/21 07:28:34;;;;;;;;;;;;;;;-143.57;100.00;51422.25;5057708;28;19920;-60
2022/12/21 07:31:03;;;;;;;;;;;;;;;-143.57;100.00;51418.28;5058768;28;19921;-60
2022/12/21 07:33:31;;;;;;;;;;;;;;;-143.57;100.00;51434.19;5056241;28;19998;-61
2022/12/21 07:35:58;;;;;;;;;;;;;;;-143.57;100.00;51426.25;5059371;28;19979;-61
2022/12/21 07:38:30;;;;;;;;;;;;;;;-143.57;100.00;51396.41;5055427;28;19925;-60
2022/12/21 07:40:57;;;;;;;;;;;;;;;-143.57;100.00;51378.53;5058035;28;19928;-61
2022/12/21 07:43:24;;;;;;;;;;;;;;;-143.57;100.00;51386.47;5056651;28;20601;-61
2022/12/21 07:46:10;;;;;;;;;;;;;;;-143.57;100.00;51418.28;5056117;28;19939;-61
2022/12/21 07:48:37;;;;;;;;;;;;;;;-143.57;100.00;51406.34;5057398;28;19936;-61
2022/12/21 07:51:04;;;;;;;;;;;;;;;-143.57;100.00;51402.38;5058856;28;19924;-61
2022/12/21 07:53:30;;;;;;;;;;;;;;;-143.57;100.00;51418.28;5058378;28;19935;-61
2022/12/21 07:55:58;;;;;;;;;;;;;;;-143.57;100.00;51434.19;5057185;28;19929;-61
2022/12/21 07:58:24;;;;;;;;;;;;;;;-143.57;100.00;51430.22;5060357;28;19982;-61
2022/12/21 08:00:51;;;;;;;;;;;;;;;-143.57;100.00;51388.47;5057242;28;20065;-61
2022/12/21 08:03:18;;;;;;;;;;;;;;;-143.57;100.00;51422.25;5059511;28;20318;-61
2022/12/21 08:05:45;;;;;;;;;;;;;;;-143.57;100.00;51436.19;5056981;28;19939;-61
2022/12/21 08:08:12;;;;;;;;;;;;;;;-143.57;100.00;51402.38;5060367;28;19925;-61
2022/12/21 08:10:38;;;;;;;;;;;;;;;-143.57;100.00;51426.25;5053465;28;19929;-61
2022/12/21 08:13:05;;;;;;;;;;;;;;;-143.57;100.00;51396.41;5058786;28;19932;-61
2022/12/21 08:15:32;;;;;;;;;;;;;;;-143.57;100.00;51402.38;5057525;28;19931;-61
2022/12/21 08:17:58;;;;;;;;;;;;;;;-143.57;100.00;51394.44;5059182;28;19936;-61
2022/12/21 08:20:30;;;;;;;;;;;;;;;-143.57;100.00;51386.47;5055182;28;19990;-61
2022/12/21 08:22:57;;;;;;;;;;;;;;;-143.57;100.00;51406.34;5055738;28;19932;-61
2022/12/21 08:25:24;;;;;;;;;;;;;;;-143.57;100.00;51398.41;5056392;28;19950;-62
2022/12/21 08:27:51;;;;;;;;;;;;;;;-143.57;100.00;51454.06;5053442;28;19925;-61
2022/12/21 08:30:18;;;;;;;;;;;;;;;-143.57;100.00;51412.31;5060043;28;19924;-61
2022/12/21 08:32:47;;;;;;;;;;;;;;;-143.57;100.00;51354.66;5057558;28;19924;-61
2022/12/21 08:35:14;;;;;;;;;;;;;;;-143.57;100.00;51426.25;5056972;28;20354;-61
2022/12/21 08:37:41;;;;;;;;;;;;;;;-143.57;100.00;51402.38;5059349;28;20434;-62
2022/12/21 08:40:08;;;;;;;;;;;;;;;-143.57;100.00;51446.13;5057134;28;20099;-62
2022/12/21 08:42:34;;;;;;;;;;;;;;;-143.57;100.00;51406.34;5057597;28;19932;-62
2022/12/21 08:45:03;;;;;;;;;;;;;;;-143.57;100.00;51366.59;5058770;28;20466;-62
2022/12/21 08:47:30;;;;;;;;;;;;;;;-143.57;100.00;51394.44;5056304;28;19935;-62
2022/12/21 08:49:56;;;;;;;;;;;;;;;-143.57;100.00;51406.34;5055827;28;19925;-63
2022/12/21 08:52:23;;;;;;;;;;;;;;;-143.57;100.00;51414.31;5054461;28;19932;-63
2022/12/21 08:54:49;;;;;;;;;;;;;;;-143.57;100.00;51422.25;5059454;28;19979;-63
2022/12/21 08:57:16;;;;;;;;;;;;;;;-143.57;100.00;51374.56;5057155;28;19933;-62
2022/12/21 08:59:42;;;;;;;;;;;;;;;-143.57;100.00;51380.50;5054866;28;19928;-61
2022/12/21 09:02:14;;;;;;;;;;;;;;;-143.57;100.00;51396.41;5059235;28;19924;-61
2022/12/21 09:04:41;;;;;;;;;;;;;;;-143.57;100.00;51406.34;5056626;28;19947;-61
2022/12/21 09:07:08;;;;;;;;;;;;;;;-143.57;100.00;51396.41;5059268;28;19924;-62
2022/12/21 09:09:34;;;;;;;;;;;;;;;-143.57;100.00;51410.34;5053089;28;19929;-62
2022/12/21 09:12:01;;;;;;;;;;;;;;;-143.57;100.00;51406.34;5059062;28;20011;-62
2022/12/21 09:14:28;;;;;;;;;;;;;;;-143.57;100.00;51430.22;5056864;28;20338;-62
2022/12/21 09:16:55;;;;;;;;;;;;;;;-143.57;100.00;51410.34;5056696;28;20439;-62
2022/12/21 09:19:23;;;;;;;;;;;;;;;-143.57;100.00;51382.50;5057311;28;19925;-62
2022/12/21 09:21:49;;;;;;;;;;;;;;;-143.57;100.00;51422.25;5056628;28;19946;-62
2022/12/21 09:24:16;;;;;;;;;;;;;;;-143.57;100.00;51428.22;5057366;28;19928;-62
2022/12/21 09:26:43;;;;;;;;;;;;;;;-143.57;100.00;51430.22;5056772;28;19936;-62
2022/12/21 09:29:10;;;;;;;;;;;;;;;-143.57;100.00;51398.41;5058747;28;19925;-62
2022/12/21 09:31:36;;;;;;;;;;;;;;;-143.57;100.00;51402.38;5057383;28;19932;-62
2022/12/21 09:34:03;;;;;;;;;;;;;;;-143.57;100.00;51442.16;5059141;28;19982;-61
2022/12/21 09:36:32;;;;;;;;;;;;;;;-143.57;100.00;51372.56;5056171;28;19952;-62
2022/12/21 09:39:15;;;;;;;;;;;;;;;-143.57;100.00;51430.22;5058658;28;20571;-64
2022/12/21 09:41:52;;;;;;;;;;;;;;;-143.57;100.00;51386.47;5054229;28;19929;-62
2022/12/21 09:44:37;;;;;;;;;;;;;;;-143.57;100.00;51382.50;5058357;28;20573;-62
2022/12/21 09:47:04;;;;;;;;;;;;;;;-143.57;100.00;51374.56;5054708;28;19956;-62
2022/12/21 09:49:37;;;;;;;;;;;;;;;-143.57;100.00;51402.38;5058298;28;19963;-62
2022/12/21 09:52:06;;;;;;;;;;;;;;;-143.57;100.00;51394.44;5054871;28;19954;-61
2022/12/21 09:54:33;;;;;;;;;;;;;;;-143.57;100.00;51426.25;5059717;28;19954;-61
2022/12/21 09:57:00;;;;;;;;;;;;;;;-143.57;100.00;51406.34;5055420;28;20740;-62
2022/12/21 09:59:27;;;;;;;;;;;;;;;-143.57;100.00;51400.41;5057510;28;19933;-61
2022/12/21 10:02:03;;;;;;;;;;;;;;;-143.57;100.00;51406.34;5054844;28;20580;-61
2022/12/21 10:04:49;;;;;;;;;;;;;;;-143.57;100.00;51402.38;5056891;28;19924;-61
2022/12/21 10:07:35;;;;;;;;;;;;;;;-143.57;100.00;51398.41;5053983;28;19928;-61
2022/12/21 10:10:02;;;;;;;;;;;;;;;-143.57;100.00;51414.31;5054499;28;19931;-61
2022/12/21 10:12:35;;;;;;;;;;;;;;;-143.57;100.00;51392.44;5052650;28;19932;-62
2022/12/21 10:15:07;;;;;;;;;;;;;;;-143.57;100.00;51410.34;5055473;28;19929;-61
2022/12/21 10:17:40;;;;;;;;;;;;;;;-143.57;100.00;51406.34;5054604;28;20685;-61
2022/12/21 10:20:27;;;;;;;;;;;;;;;-143.57;100.00;51418.28;5053624;28;19936;-61
2022/12/21 10:22:57;;;;;;;;;;;;;;;-143.57;100.00;51410.34;5057939;28;19935;-61
2022/12/21 10:25:27;;;;;;;;;;;;;;;-143.57;100.00;51390.47;5055266;28;19936;-62
2022/12/21 10:28:08;;;;;;;;;;;;;;;-143.57;100.00;51394.44;5055638;28;19925;-62
2022/12/21 10:30:37;;;;;;;;;;;;;;;-143.57;100.00;51410.34;5059488;28;19928;-62
2022/12/21 10:33:07;;;;;;;;;;;;;;;-143.57;100.00;51414.31;5060550;28;20014;-61
2022/12/21 10:35:38;;;;;;;;;;;;;;;-143.57;100.00;51398.41;5059686;28;19924;-62
2022/12/21 10:38:14;;;;;;;;;;;;;;;-143.57;100.00;51406.34;5061316;28;20393;-61
2022/12/21 10:40:41;;;;;;;;;;;;;;;-143.57;100.00;51414.31;5059546;28;19929;-62
2022/12/21 10:43:10;;;;;;;;;;;;;;;-143.57;100.00;51402.38;5061030;28;20087;-62
2022/12/21 10:45:37;;;;;;;;;;;;;;;-143.57;100.00;51406.34;5059089;28;20739;-62
2022/12/21 10:48:03;;;;;;;;;;;;;;;-143.57;100.00;51374.56;5059574;28;20524;-62
2022/12/21 10:50:34;;;;;;;;;;;;;;;-143.57;100.00;51410.34;5059846;28;19954;-61
2022/12/21 10:53:18;;;;;;;;;;;;;;;-143.57;100.00;51394.44;5061053;28;19929;-61
2022/12/21 10:55:45;;;;;;;;;;;;;;;-143.57;100.00;51410.34;5057581;28;19932;-62
2022/12/21 10:58:16;;;;;;;;;;;;;;;-143.57;100.00;51406.34;5060056;28;19928;-62
2022/12/21 11:00:51;;;;;;;;;;;;;;;-143.57;100.00;51370.56;5057225;28;19936;-61
2022/12/21 11:03:22;;;;;;;;;;;;;;;-143.57;100.00;51410.34;5059393;28;20033;-62
2022/12/21 11:05:49;;;;;;;;;;;;;;;-143.57;100.00;51388.47;5058046;28;20015;-61
2022/12/21 11:08:21;;;;;;;;;;;;;;;-143.57;100.00;51390.47;5057439;28;20685;-62
2022/12/21 11:10:49;;;;;;;;;;;;;;;-143.57;100.00;51422.25;5057823;28;20342;-62
2022/12/21 11:13:19;;;;;;;;;;;;;;;-143.57;100.00;51430.22;5057076;28;20407;-62
2022/12/21 11:15:58;;;;;;;;;;;;;;;-143.57;100.00;51394.44;5057883;28;19928;-62
2022/12/21 11:18:38;;;;;;;;;;;;;;;-143.57;100.00;51388.47;5060834;28;19939;-62
2022/12/21 11:21:21;;;;;;;;;;;;;;;-143.57;100.00;51406.34;5058717;28;19924;-62
2022/12/21 11:23:53;;;;;;;;;;;;;;;-143.57;100.00;51366.59;5058112;28;20318;-64
2022/12/21 11:26:21;;;;;;;;;;;;;;;-143.57;100.00;51398.41;5061910;28;20059;-63
2022/12/21 11:28:49;;;;;;;;;;;;;;;-143.57;100.00;51398.41;5060324;28;19990;-62
2022/12/21 11:31:16;;;;;;;;;;;;;;;-143.57;100.00;51410.34;5059872;28;19924;-63
2022/12/21 11:33:44;;;;;;;;;;;;;;;-143.57;100.00;51426.25;5056441;28;19928;-62
2022/12/21 11:36:15;;;;;;;;;;;;;;;-143.57;100.00;51382.50;5059973;28;20016;-62
2022/12/21 11:38:42;;;;;;;;;;;;;;;-143.57;100.00;51386.47;5057057;28;19985;-65
2022/12/21 11:41:25;;;;;;;;;;;;;;;-143.57;100.00;51382.50;5059492;28;19986;-62
2022/12/21 11:43:52;;;;;;;;;;;;;;;-143.57;100.00;51378.53;5055411;28;20587;-63
2022/12/21 11:46:22;;;;;;;;;;;;;;;-143.57;100.00;51398.41;5060131;28;19931;-63
2022/12/21 11:49:17;;;;;;;;;;;;;;;-143.57;100.00;51426.25;5057086;28;20358;-62
2022/12/21 11:51:51;;;;;;;;;;;;;;;-143.57;100.00;51414.31;5060136;28;19932;-62
2022/12/21 11:54:27;;;;;;;;;;;;;;;-143.57;100.00;51406.34;5056433;28;20259;-62
2022/12/21 11:57:05;;;;;;;;;;;;;;;-143.57;100.00;51408.34;5057413;28;20094;-63
2022/12/21 11:59:32;;;;;;;;;;;;;;;-143.57;100.00;51406.34;5057524;28;19929;-62
2022/12/21 12:02:14;;;;;;;;;;;;;;;-143.57;100.00;51382.50;5058536;28;20663;-62
2022/12/21 12:05:07;;;;;;;;;;;;;;;-143.57;100.00;51338.78;5055289;28;20003;-63
2022/12/21 12:07:37;;;;;;;;;;;;;;;-143.57;67.14;51378.53;5057295;28;20370;-63
2022/12/21 12:10:14;;;;;;;;;;;;;;;-143.57;55.06;51366.59;5054546;28;19928;-64
2022/12/21 12:12:41;;;;;;;;;;;;;;;-143.57;48.45;51394.44;5057079;28;20015;-63
2022/12/21 12:15:26;;;;;;;;;;;;;;;-143.57;42.23;51390.47;5057601;28;19932;-62
2022/12/21 12:18:11;;;;;;;;;;;;;;;-143.57;39.70;51370.56;5056939;28;19924;-62
2022/12/21 12:20:40;;;;;;;;;;;;;;;-143.57;37.39;51366.59;5054779;28;20215;-63
2022/12/21 12:23:16;;;;;;;;;;;;;;;-143.57;35.58;51358.66;5056099;28;19936;-63
2022/12/21 12:25:45;;;;;;;;;;;;;;;-143.57;33.56;51378.53;5055120;28;19936;-63
2022/12/21 12:28:12;;;;;;;;;;;;;;;-143.57;32.35;51350.69;5053824;28;20756;-63
2022/12/21 12:30:58;;;;;;;;;;;;;;;-143.57;31.21;51334.78;5057709;28;19928;-63
2022/12/21 12:33:38;;;;;;;;;;;;;;;-143.57;31.26;51314.91;5055541;28;20014;-63
2022/12/21 12:36:13;;;;;;;;;;;;;;;-143.57;30.53;51364.63;5057538;28;20431;-63
2022/12/21 12:38:43;;;;;;;;;;;;;;;-143.57;30.34;51346.72;5055358;28;19929;-63
2022/12/21 12:41:10;;;;;;;;;;;;;;;-143.57;29.81;51316.91;5059255;28;19928;-64
2022/12/21 12:43:57;;;;;;;;;;;;;;;-143.57;29.83;51320.88;5055666;28;19928;-63
2022/12/21 12:46:33;;;;;;;;;;;;;;;-143.57;29.35;51330.81;5027921;28;19981;-64
2022/12/21 12:49:14;;;;;;;;;;;;;;;-143.57;29.27;51334.78;5055713;28;19929;-64
2022/12/21 12:51:57;;;;;;;;;;;;;;;-143.57;29.19;51362.63;5057979;28;19924;-64
2022/12/21 12:54:32;;;;;;;;;;;;;;;-143.57;29.90;51342.75;5056027;28;19939;-63
2022/12/21 12:57:02;;;;;;;;;;;;;;;-143.57;29.98;51316.91;5059610;28;20529;-64